sensor_id;sensor_type;location;lat;lon;timestamp;P1;durP1;ratioP1;P2;durP2;ratioP2
9140;SDS011;46330;50.822;7.126;2023-04-15T00:02:18;11.55;;;4.72;;
9140;SDS011;46330;50.822;7.126;2023-04-15T00:04:46;11.20;;;4.40;;
9140;SDS011;46330;50.822;7.126;2023-04-15T00:07:16;11.30;;;4.57;;
9140;SDS011;46330;50.822;7.126;2023-04-15T00:09:44;9.45;;;4.63;;
9140;SDS011;46330;50.822;7.126;2023-04-15T00:12:12;8.55;;;4.30;;
9140;SDS011;46330;50.822;7.126;2023-04-15T00:14:40;9.27;;;4.18;;
9140;SDS011;46330;50.822;7.126;2023-04-15T00:17:08;9.55;;;4.28;;
9140;SDS011;46330;50.822;7.126;2023-04-15T00:19:36;9.43;;;4.60;;
9140;SDS011;46330;50.822;7.126;2023-04-15T00:22:03;8.05;;;4.15;;
9140;SDS011;46330;50.822;7.126;2023-04-15T00:24:33;9.23;;;4.80;;
9140;SDS011;46330;50.822;7.126;2023-04-15T00:27:00;10.35;;;4.68;;
9140;SDS011;46330;50.822;7.126;2023-04-15T00:29:29;8.13;;;4.53;;
9140;SDS011;46330;50.822;7.126;2023-04-15T00:31:57;8.98;;;4.18;;
9140;SDS011;46330;50.822;7.126;2023-04-15T00:34:25;14.38;;;4.10;;
9140;SDS011;46330;50.822;7.126;2023-04-15T00:36:54;7.32;;;4.35;;
9140;SDS011;46330;50.822;7.126;2023-04-15T00:39:22;9.90;;;4.10;;
9140;SDS011;46330;50.822;7.126;2023-04-15T00:41:51;9.50;;;4.00;;
9140;SDS011;46330;50.822;7.126;2023-04-15T00:44:19;8.43;;;4.28;;
9140;SDS011;46330;50.822;7.126;2023-04-15T00:46:47;9.40;;;4.00;;
9140;SDS011;46330;50.822;7.126;2023-04-15T00:49:18;6.75;;;3.50;;
9140;SDS011;46330;50.822;7.126;2023-04-15T00:51:46;6.85;;;4.00;;
9140;SDS011;46330;50.822;7.126;2023-04-15T00:54:14;8.55;;;4.28;;
9140;SDS011;46330;50.822;7.126;2023-04-15T00:56:42;8.55;;;3.85;;
9140;SDS011;46330;50.822;7.126;2023-04-15T00:59:12;8.38;;;4.03;;
9140;SDS011;46330;50.822;7.126;2023-04-15T01:01:41;8.77;;;4.03;;
9140;SDS011;46330;50.822;7.126;2023-04-15T01:04:10;9.18;;;3.83;;
9140;SDS011;46330;50.822;7.126;2023-04-15T01:06:38;9.30;;;4.03;;
9140;SDS011;46330;50.822;7.126;2023-04-15T01:09:06;8.15;;;4.00;;
9140;SDS011;46330;50.822;7.126;2023-04-15T01:11:36;12.43;;;4.20;;
9140;SDS011;46330;50.822;7.126;2023-04-15T01:14:07;9.30;;;4.20;;
9140;SDS011;46330;50.822;7.126;2023-04-15T01:16:37;7.38;;;4.53;;
9140;SDS011;46330;50.822;7.126;2023-04-15T01:19:06;9.90;;;4.63;;
9140;SDS011;46330;50.822;7.126;2023-04-15T01:21:37;10.00;;;3.92;;
9140;SDS011;46330;50.822;7.126;2023-04-15T01:24:07;10.45;;;4.53;;
9140;SDS011;46330;50.822;7.126;2023-04-15T01:26:38;9.02;;;4.53;;
9140;SDS011;46330;50.822;7.126;2023-04-15T01:29:09;9.30;;;4.10;;
9140;SDS011;46330;50.822;7.126;2023-04-15T01:31:37;8.82;;;4.40;;
9140;SDS011;46330;50.822;7.126;2023-04-15T01:34:05;7.97;;;4.05;;
9140;SDS011;46330;50.822;7.126;2023-04-15T01:36:33;10.13;;;4.35;;
9140;SDS011;46330;50.822;7.126;2023-04-15T01:39:02;9.32;;;4.63;;
9140;SDS011;46330;50.822;7.126;2023-04-15T01:41:31;8.35;;;4.10;;
9140;SDS011;46330;50.822;7.126;2023-04-15T01:44:00;10.77;;;4.35;;
9140;SDS011;46330;50.822;7.126;2023-04-15T01:46:28;9.27;;;3.92;;
9140;SDS011;46330;50.822;7.126;2023-04-15T01:48:56;9.80;;;3.78;;
9140;SDS011;46330;50.822;7.126;2023-04-15T01:51:24;6.97;;;4.03;;
9140;SDS011;46330;50.822;7.126;2023-04-15T01:53:52;10.43;;;4.00;;
9140;SDS011;46330;50.822;7.126;2023-04-15T01:56:22;9.68;;;4.43;;
9140;SDS011;46330;50.822;7.126;2023-04-15T01:58:51;10.25;;;4.43;;
9140;SDS011;46330;50.822;7.126;2023-04-15T02:01:20;8.00;;;4.00;;
9140;SDS011;46330;50.822;7.126;2023-04-15T02:03:49;7.90;;;4.22;;
9140;SDS011;46330;50.822;7.126;2023-04-15T02:06:17;8.32;;;3.83;;
9140;SDS011;46330;50.822;7.126;2023-04-15T02:08:46;9.25;;;4.15;;
9140;SDS011;46330;50.822;7.126;2023-04-15T02:11:14;10.45;;;4.25;;
9140;SDS011;46330;50.822;7.126;2023-04-15T02:13:42;10.60;;;4.50;;
9140;SDS011;46330;50.822;7.126;2023-04-15T02:16:17;8.77;;;4.25;;
9140;SDS011;46330;50.822;7.126;2023-04-15T02:18:47;10.70;;;4.63;;
9140;SDS011;46330;50.822;7.126;2023-04-15T02:21:15;11.95;;;4.30;;
9140;SDS011;46330;50.822;7.126;2023-04-15T02:23:44;8.25;;;4.57;;
9140;SDS011;46330;50.822;7.126;2023-04-15T02:26:13;8.63;;;4.65;;
9140;SDS011;46330;50.822;7.126;2023-04-15T02:28:41;8.23;;;4.72;;
9140;SDS011;46330;50.822;7.126;2023-04-15T02:31:12;11.05;;;4.28;;
9140;SDS011;46330;50.822;7.126;2023-04-15T02:33:40;8.65;;;4.40;;
9140;SDS011;46330;50.822;7.126;2023-04-15T02:36:09;10.23;;;4.55;;
9140;SDS011;46330;50.822;7.126;2023-04-15T02:38:37;12.80;;;5.10;;
9140;SDS011;46330;50.822;7.126;2023-04-15T02:41:07;10.35;;;4.75;;
9140;SDS011;46330;50.822;7.126;2023-04-15T02:43:36;8.13;;;4.35;;
9140;SDS011;46330;50.822;7.126;2023-04-15T02:46:06;10.38;;;4.30;;
9140;SDS011;46330;50.822;7.126;2023-04-15T02:48:38;10.13;;;4.65;;
9140;SDS011;46330;50.822;7.126;2023-04-15T02:51:12;10.95;;;4.70;;
9140;SDS011;46330;50.822;7.126;2023-04-15T02:53:41;13.93;;;5.40;;
9140;SDS011;46330;50.822;7.126;2023-04-15T02:56:09;10.13;;;4.45;;
9140;SDS011;46330;50.822;7.126;2023-04-15T02:58:38;11.13;;;4.78;;
9140;SDS011;46330;50.822;7.126;2023-04-15T03:01:06;8.50;;;4.60;;
9140;SDS011;46330;50.822;7.126;2023-04-15T03:03:35;9.05;;;4.20;;
9140;SDS011;46330;50.822;7.126;2023-04-15T03:06:03;10.88;;;4.63;;
9140;SDS011;46330;50.822;7.126;2023-04-15T03:08:33;11.32;;;4.80;;
9140;SDS011;46330;50.822;7.126;2023-04-15T03:11:02;9.63;;;4.50;;
9140;SDS011;46330;50.822;7.126;2023-04-15T03:13:31;7.30;;;4.35;;
9140;SDS011;46330;50.822;7.126;2023-04-15T03:16:07;8.70;;;4.28;;
9140;SDS011;46330;50.822;7.126;2023-04-15T03:18:35;9.50;;;4.82;;
9140;SDS011;46330;50.822;7.126;2023-04-15T03:21:03;9.90;;;4.60;;
9140;SDS011;46330;50.822;7.126;2023-04-15T03:23:35;10.57;;;4.03;;
9140;SDS011;46330;50.822;7.126;2023-04-15T03:26:03;11.38;;;4.90;;
9140;SDS011;46330;50.822;7.126;2023-04-15T03:28:32;10.30;;;4.90;;
9140;SDS011;46330;50.822;7.126;2023-04-15T03:31:00;14.80;;;5.00;;
9140;SDS011;46330;50.822;7.126;2023-04-15T03:33:29;15.27;;;5.25;;
9140;SDS011;46330;50.822;7.126;2023-04-15T03:35:57;10.63;;;4.90;;
9140;SDS011;46330;50.822;7.126;2023-04-15T03:38:25;8.23;;;4.60;;
9140;SDS011;46330;50.822;7.126;2023-04-15T03:40:54;9.50;;;4.70;;
9140;SDS011;46330;50.822;7.126;2023-04-15T03:43:22;11.93;;;4.70;;
9140;SDS011;46330;50.822;7.126;2023-04-15T03:45:50;9.60;;;4.72;;
9140;SDS011;46330;50.822;7.126;2023-04-15T03:48:17;10.40;;;4.57;;
9140;SDS011;46330;50.822;7.126;2023-04-15T03:50:45;9.50;;;4.70;;
9140;SDS011;46330;50.822;7.126;2023-04-15T03:53:13;8.20;;;4.50;;
9140;SDS011;46330;50.822;7.126;2023-04-15T03:55:41;8.85;;;4.53;;
9140;SDS011;46330;50.822;7.126;2023-04-15T03:58:11;23.25;;;14.18;;
9140;SDS011;46330;50.822;7.126;2023-04-15T04:00:39;18.85;;;9.73;;
9140;SDS011;46330;50.822;7.126;2023-04-15T04:03:07;12.63;;;5.78;;
9140;SDS011;46330;50.822;7.126;2023-04-15T04:05:35;8.80;;;4.72;;
9140;SDS011;46330;50.822;7.126;2023-04-15T04:08:04;11.52;;;4.72;;
9140;SDS011;46330;50.822;7.126;2023-04-15T04:10:32;12.15;;;4.97;;
9140;SDS011;46330;50.822;7.126;2023-04-15T04:13:00;9.95;;;4.82;;
9140;SDS011;46330;50.822;7.126;2023-04-15T04:15:29;11.60;;;4.72;;
9140;SDS011;46330;50.822;7.126;2023-04-15T04:17:57;10.43;;;4.53;;
9140;SDS011;46330;50.822;7.126;2023-04-15T04:20:26;12.32;;;4.80;;
9140;SDS011;46330;50.822;7.126;2023-04-15T04:22:54;7.43;;;4.10;;
9140;SDS011;46330;50.822;7.126;2023-04-15T04:25:21;9.85;;;6.05;;
9140;SDS011;46330;50.822;7.126;2023-04-15T04:27:49;11.52;;;6.15;;
9140;SDS011;46330;50.822;7.126;2023-04-15T04:30:17;11.20;;;5.40;;
9140;SDS011;46330;50.822;7.126;2023-04-15T04:32:47;9.57;;;4.75;;
9140;SDS011;46330;50.822;7.126;2023-04-15T04:35:16;11.65;;;4.60;;
9140;SDS011;46330;50.822;7.126;2023-04-15T04:37:44;10.70;;;5.10;;
9140;SDS011;46330;50.822;7.126;2023-04-15T04:40:12;13.50;;;5.18;;
9140;SDS011;46330;50.822;7.126;2023-04-15T04:42:40;11.05;;;4.65;;
9140;SDS011;46330;50.822;7.126;2023-04-15T04:45:08;9.68;;;4.57;;
9140;SDS011;46330;50.822;7.126;2023-04-15T04:47:36;9.00;;;4.55;;
9140;SDS011;46330;50.822;7.126;2023-04-15T04:50:06;7.97;;;4.82;;
9140;SDS011;46330;50.822;7.126;2023-04-15T04:52:35;10.20;;;4.80;;
9140;SDS011;46330;50.822;7.126;2023-04-15T04:55:03;12.50;;;5.63;;
9140;SDS011;46330;50.822;7.126;2023-04-15T04:57:33;10.43;;;4.82;;
9140;SDS011;46330;50.822;7.126;2023-04-15T05:00:03;11.85;;;5.50;;
9140;SDS011;46330;50.822;7.126;2023-04-15T05:02:32;13.43;;;5.32;;
9140;SDS011;46330;50.822;7.126;2023-04-15T05:05:00;14.43;;;5.75;;
9140;SDS011;46330;50.822;7.126;2023-04-15T05:07:29;10.18;;;5.65;;
9140;SDS011;46330;50.822;7.126;2023-04-15T05:09:58;11.38;;;5.90;;
9140;SDS011;46330;50.822;7.126;2023-04-15T05:12:26;9.60;;;5.32;;
9140;SDS011;46330;50.822;7.126;2023-04-15T05:14:54;10.60;;;5.70;;
9140;SDS011;46330;50.822;7.126;2023-04-15T05:17:22;9.75;;;5.40;;
9140;SDS011;46330;50.822;7.126;2023-04-15T05:19:50;9.98;;;5.80;;
9140;SDS011;46330;50.822;7.126;2023-04-15T05:22:19;10.23;;;5.55;;
9140;SDS011;46330;50.822;7.126;2023-04-15T05:24:48;9.15;;;5.40;;
9140;SDS011;46330;50.822;7.126;2023-04-15T05:27:16;10.63;;;5.47;;
9140;SDS011;46330;50.822;7.126;2023-04-15T05:29:44;13.18;;;5.80;;
9140;SDS011;46330;50.822;7.126;2023-04-15T05:32:12;11.77;;;5.72;;
9140;SDS011;46330;50.822;7.126;2023-04-15T05:34:40;13.90;;;6.07;;
9140;SDS011;46330;50.822;7.126;2023-04-15T05:37:08;9.95;;;5.30;;
9140;SDS011;46330;50.822;7.126;2023-04-15T05:39:36;8.65;;;5.63;;
9140;SDS011;46330;50.822;7.126;2023-04-15T05:42:05;10.05;;;5.85;;
9140;SDS011;46330;50.822;7.126;2023-04-15T05:44:33;10.15;;;4.50;;
9140;SDS011;46330;50.822;7.126;2023-04-15T05:47:01;10.50;;;4.78;;
9140;SDS011;46330;50.822;7.126;2023-04-15T05:49:31;9.90;;;4.60;;
9140;SDS011;46330;50.822;7.126;2023-04-15T05:51:59;9.63;;;5.07;;
9140;SDS011;46330;50.822;7.126;2023-04-15T05:54:27;8.52;;;4.82;;
9140;SDS011;46330;50.822;7.126;2023-04-15T05:56:54;7.90;;;4.63;;
9140;SDS011;46330;50.822;7.126;2023-04-15T05:59:24;9.70;;;4.57;;
9140;SDS011;46330;50.822;7.126;2023-04-15T06:01:52;7.80;;;4.45;;
9140;SDS011;46330;50.822;7.126;2023-04-15T06:04:20;7.78;;;4.03;;
9140;SDS011;46330;50.822;7.126;2023-04-15T06:06:48;5.63;;;3.97;;
9140;SDS011;46330;50.822;7.126;2023-04-15T06:09:16;6.75;;;4.07;;
9140;SDS011;46330;50.822;7.126;2023-04-15T06:11:44;7.65;;;4.40;;
9140;SDS011;46330;50.822;7.126;2023-04-15T06:14:12;7.57;;;3.60;;
9140;SDS011;46330;50.822;7.126;2023-04-15T06:16:41;5.95;;;3.85;;
9140;SDS011;46330;50.822;7.126;2023-04-15T06:19:09;7.45;;;3.65;;
9140;SDS011;46330;50.822;7.126;2023-04-15T06:21:37;6.97;;;3.60;;
9140;SDS011;46330;50.822;7.126;2023-04-15T06:24:05;6.57;;;3.78;;
9140;SDS011;46330;50.822;7.126;2023-04-15T06:26:33;10.88;;;4.03;;
9140;SDS011;46330;50.822;7.126;2023-04-15T06:29:01;7.05;;;4.25;;
9140;SDS011;46330;50.822;7.126;2023-04-15T06:31:29;9.27;;;4.32;;
9140;SDS011;46330;50.822;7.126;2023-04-15T06:33:58;7.40;;;4.40;;
9140;SDS011;46330;50.822;7.126;2023-04-15T06:36:26;7.65;;;4.30;;
9140;SDS011;46330;50.822;7.126;2023-04-15T06:38:54;7.25;;;4.18;;
9140;SDS011;46330;50.822;7.126;2023-04-15T06:41:22;6.90;;;4.35;;
9140;SDS011;46330;50.822;7.126;2023-04-15T06:43:51;8.07;;;4.05;;
9140;SDS011;46330;50.822;7.126;2023-04-15T06:46:19;7.18;;;4.05;;
9140;SDS011;46330;50.822;7.126;2023-04-15T06:48:47;6.50;;;4.00;;
9140;SDS011;46330;50.822;7.126;2023-04-15T06:51:17;6.55;;;4.00;;
9140;SDS011;46330;50.822;7.126;2023-04-15T06:53:45;8.50;;;4.15;;
9140;SDS011;46330;50.822;7.126;2023-04-15T06:56:12;6.80;;;3.70;;
9140;SDS011;46330;50.822;7.126;2023-04-15T06:58:41;5.72;;;3.83;;
9140;SDS011;46330;50.822;7.126;2023-04-15T07:01:09;6.63;;;3.95;;
9140;SDS011;46330;50.822;7.126;2023-04-15T07:03:37;8.07;;;4.15;;
9140;SDS011;46330;50.822;7.126;2023-04-15T07:06:05;7.20;;;3.80;;
9140;SDS011;46330;50.822;7.126;2023-04-15T07:08:35;7.43;;;3.88;;
9140;SDS011;46330;50.822;7.126;2023-04-15T07:11:03;7.07;;;3.72;;
9140;SDS011;46330;50.822;7.126;2023-04-15T07:13:31;6.13;;;3.80;;
9140;SDS011;46330;50.822;7.126;2023-04-15T07:15:59;7.63;;;3.53;;
9140;SDS011;46330;50.822;7.126;2023-04-15T07:18:27;5.78;;;3.25;;
9140;SDS011;46330;50.822;7.126;2023-04-15T07:20:55;4.78;;;3.25;;
9140;SDS011;46330;50.822;7.126;2023-04-15T07:23:23;6.85;;;4.10;;
9140;SDS011;46330;50.822;7.126;2023-04-15T07:25:52;6.28;;;3.90;;
9140;SDS011;46330;50.822;7.126;2023-04-15T07:28:21;8.93;;;3.78;;
9140;SDS011;46330;50.822;7.126;2023-04-15T07:30:48;10.57;;;3.83;;
9140;SDS011;46330;50.822;7.126;2023-04-15T07:33:17;5.28;;;3.55;;
9140;SDS011;46330;50.822;7.126;2023-04-15T07:35:44;5.50;;;3.83;;
9140;SDS011;46330;50.822;7.126;2023-04-15T07:38:13;11.15;;;4.35;;
9140;SDS011;46330;50.822;7.126;2023-04-15T07:40:41;8.73;;;4.22;;
9140;SDS011;46330;50.822;7.126;2023-04-15T07:43:10;7.30;;;3.90;;
9140;SDS011;46330;50.822;7.126;2023-04-15T07:45:38;5.63;;;3.92;;
9140;SDS011;46330;50.822;7.126;2023-04-15T07:48:07;6.30;;;4.07;;
9140;SDS011;46330;50.822;7.126;2023-04-15T07:50:34;10.63;;;4.20;;
9140;SDS011;46330;50.822;7.126;2023-04-15T07:53:03;8.07;;;4.20;;
9140;SDS011;46330;50.822;7.126;2023-04-15T07:55:32;6.65;;;3.90;;
9140;SDS011;46330;50.822;7.126;2023-04-15T07:58:00;6.30;;;3.67;;
9140;SDS011;46330;50.822;7.126;2023-04-15T08:00:29;6.70;;;3.95;;
9140;SDS011;46330;50.822;7.126;2023-04-15T08:02:57;6.47;;;3.88;;
9140;SDS011;46330;50.822;7.126;2023-04-15T08:05:25;6.07;;;3.65;;
9140;SDS011;46330;50.822;7.126;2023-04-15T08:07:54;6.28;;;3.90;;
9140;SDS011;46330;50.822;7.126;2023-04-15T08:10:22;6.57;;;4.40;;
9140;SDS011;46330;50.822;7.126;2023-04-15T08:12:50;6.47;;;3.80;;
9140;SDS011;46330;50.822;7.126;2023-04-15T08:15:19;6.95;;;3.20;;
9140;SDS011;46330;50.822;7.126;2023-04-15T08:17:49;5.68;;;2.78;;
9140;SDS011;46330;50.822;7.126;2023-04-15T08:20:17;5.70;;;2.95;;
9140;SDS011;46330;50.822;7.126;2023-04-15T08:22:45;4.38;;;2.80;;
9140;SDS011;46330;50.822;7.126;2023-04-15T08:25:17;4.88;;;2.58;;
9140;SDS011;46330;50.822;7.126;2023-04-15T08:27:45;3.38;;;2.50;;
9140;SDS011;46330;50.822;7.126;2023-04-15T08:30:13;4.38;;;2.50;;
9140;SDS011;46330;50.822;7.126;2023-04-15T08:32:42;5.95;;;2.50;;
9140;SDS011;46330;50.822;7.126;2023-04-15T08:35:14;4.50;;;2.20;;
9140;SDS011;46330;50.822;7.126;2023-04-15T08:37:42;3.53;;;2.08;;
9140;SDS011;46330;50.822;7.126;2023-04-15T08:40:10;2.78;;;1.90;;
9140;SDS011;46330;50.822;7.126;2023-04-15T08:42:40;3.08;;;1.60;;
9140;SDS011;46330;50.822;7.126;2023-04-15T08:45:15;2.67;;;1.60;;
9140;SDS011;46330;50.822;7.126;2023-04-15T08:47:44;4.40;;;1.63;;
9140;SDS011;46330;50.822;7.126;2023-04-15T08:50:16;5.30;;;1.63;;
9140;SDS011;46330;50.822;7.126;2023-04-15T08:52:45;4.63;;;1.55;;
9140;SDS011;46330;50.822;7.126;2023-04-15T08:55:13;3.10;;;1.58;;
9140;SDS011;46330;50.822;7.126;2023-04-15T08:57:42;2.10;;;1.40;;
9140;SDS011;46330;50.822;7.126;2023-04-15T09:00:11;4.70;;;1.60;;
9140;SDS011;46330;50.822;7.126;2023-04-15T09:02:40;2.72;;;1.50;;
9140;SDS011;46330;50.822;7.126;2023-04-15T09:05:09;4.43;;;1.50;;
9140;SDS011;46330;50.822;7.126;2023-04-15T09:07:39;2.60;;;1.42;;
9140;SDS011;46330;50.822;7.126;2023-04-15T09:10:07;1.67;;;1.20;;
9140;SDS011;46330;50.822;7.126;2023-04-15T09:12:36;3.22;;;1.50;;
9140;SDS011;46330;50.822;7.126;2023-04-15T09:15:04;2.17;;;1.40;;
9140;SDS011;46330;50.822;7.126;2023-04-15T09:17:33;1.80;;;1.30;;
9140;SDS011;46330;50.822;7.126;2023-04-15T09:20:07;1.92;;;1.00;;
9140;SDS011;46330;50.822;7.126;2023-04-15T09:25:12;1.20;;;1.10;;
9140;SDS011;46330;50.822;7.126;2023-04-15T09:27:53;3.67;;;1.33;;
9140;SDS011;46330;50.822;7.126;2023-04-15T09:30:22;2.17;;;1.30;;
9140;SDS011;46330;50.822;7.126;2023-04-15T09:32:51;3.72;;;1.90;;
9140;SDS011;46330;50.822;7.126;2023-04-15T09:35:20;1.58;;;1.27;;
9140;SDS011;46330;50.822;7.126;2023-04-15T09:37:49;1.65;;;1.00;;
9140;SDS011;46330;50.822;7.126;2023-04-15T09:40:31;3.45;;;2.90;;
9140;SDS011;46330;50.822;7.126;2023-04-15T09:42:59;4.90;;;3.10;;
9140;SDS011;46330;50.822;7.126;2023-04-15T09:45:28;2.38;;;1.30;;
9140;SDS011;46330;50.822;7.126;2023-04-15T09:47:56;1.90;;;1.00;;
9140;SDS011;46330;50.822;7.126;2023-04-15T09:50:26;1.75;;;1.42;;
9140;SDS011;46330;50.822;7.126;2023-04-15T09:52:55;3.10;;;2.30;;
9140;SDS011;46330;50.822;7.126;2023-04-15T09:55:23;3.50;;;1.60;;
9140;SDS011;46330;50.822;7.126;2023-04-15T09:57:53;1.20;;;1.00;;
9140;SDS011;46330;50.822;7.126;2023-04-15T10:00:23;2.22;;;1.30;;
9140;SDS011;46330;50.822;7.126;2023-04-15T10:02:54;2.83;;;1.30;;
9140;SDS011;46330;50.822;7.126;2023-04-15T10:05:22;3.05;;;1.95;;
9140;SDS011;46330;50.822;7.126;2023-04-15T10:07:55;4.78;;;2.67;;
9140;SDS011;46330;50.822;7.126;2023-04-15T10:10:23;4.53;;;2.90;;
9140;SDS011;46330;50.822;7.126;2023-04-15T10:12:53;3.50;;;1.42;;
9140;SDS011;46330;50.822;7.126;2023-04-15T10:15:21;1.98;;;1.40;;
9140;SDS011;46330;50.822;7.126;2023-04-15T10:17:50;2.28;;;1.20;;
9140;SDS011;46330;50.822;7.126;2023-04-15T10:20:21;2.80;;;1.52;;
9140;SDS011;46330;50.822;7.126;2023-04-15T10:22:49;3.53;;;2.13;;
9140;SDS011;46330;50.822;7.126;2023-04-15T10:25:19;6.32;;;3.95;;
9140;SDS011;46330;50.822;7.126;2023-04-15T10:27:49;2.75;;;2.05;;
9140;SDS011;46330;50.822;7.126;2023-04-15T10:30:19;4.10;;;2.65;;
9140;SDS011;46330;50.822;7.126;2023-04-15T10:32:48;6.47;;;4.53;;
9140;SDS011;46330;50.822;7.126;2023-04-15T10:35:17;3.03;;;1.90;;
9140;SDS011;46330;50.822;7.126;2023-04-15T10:37:46;2.38;;;1.60;;
9140;SDS011;46330;50.822;7.126;2023-04-15T10:40:22;2.17;;;1.38;;
9140;SDS011;46330;50.822;7.126;2023-04-15T10:42:54;2.35;;;1.42;;
9140;SDS011;46330;50.822;7.126;2023-04-15T10:45:25;3.40;;;1.50;;
9140;SDS011;46330;50.822;7.126;2023-04-15T10:47:54;4.10;;;1.83;;
9140;SDS011;46330;50.822;7.126;2023-04-15T10:50:24;3.75;;;2.15;;
9140;SDS011;46330;50.822;7.126;2023-04-15T10:52:53;3.25;;;2.00;;
9140;SDS011;46330;50.822;7.126;2023-04-15T10:55:23;2.28;;;1.90;;
9140;SDS011;46330;50.822;7.126;2023-04-15T10:57:53;3.55;;;2.45;;
9140;SDS011;46330;50.822;7.126;2023-04-15T11:00:27;4.82;;;2.85;;
9140;SDS011;46330;50.822;7.126;2023-04-15T11:02:57;4.93;;;3.50;;
9140;SDS011;46330;50.822;7.126;2023-04-15T11:08:18;4.13;;;3.10;;
9140;SDS011;46330;50.822;7.126;2023-04-15T11:10:50;4.13;;;2.40;;
9140;SDS011;46330;50.822;7.126;2023-04-15T11:13:23;3.03;;;2.40;;
9140;SDS011;46330;50.822;7.126;2023-04-15T11:15:59;4.05;;;2.60;;
9140;SDS011;46330;50.822;7.126;2023-04-15T11:18:31;2.97;;;2.50;;
9140;SDS011;46330;50.822;7.126;2023-04-15T11:21:04;3.13;;;2.28;;
9140;SDS011;46330;50.822;7.126;2023-04-15T11:23:34;3.10;;;2.30;;
9140;SDS011;46330;50.822;7.126;2023-04-15T11:26:04;5.32;;;2.40;;
9140;SDS011;46330;50.822;7.126;2023-04-15T11:28:35;4.13;;;2.20;;
9140;SDS011;46330;50.822;7.126;2023-04-15T11:31:06;3.60;;;2.50;;
9140;SDS011;46330;50.822;7.126;2023-04-15T11:33:37;3.45;;;2.50;;
9140;SDS011;46330;50.822;7.126;2023-04-15T11:36:19;3.08;;;2.33;;
9140;SDS011;46330;50.822;7.126;2023-04-15T11:38:47;2.20;;;2.00;;
9140;SDS011;46330;50.822;7.126;2023-04-15T11:41:18;2.15;;;1.85;;
9140;SDS011;46330;50.822;7.126;2023-04-15T11:43:47;1.92;;;1.75;;
9140;SDS011;46330;50.822;7.126;2023-04-15T11:46:16;3.35;;;2.45;;
9140;SDS011;46330;50.822;7.126;2023-04-15T11:48:45;2.38;;;2.03;;
9140;SDS011;46330;50.822;7.126;2023-04-15T11:51:13;2.33;;;2.08;;
9140;SDS011;46330;50.822;7.126;2023-04-15T11:53:42;2.92;;;2.10;;
9140;SDS011;46330;50.822;7.126;2023-04-15T11:56:15;2.97;;;2.00;;
9140;SDS011;46330;50.822;7.126;2023-04-15T11:58:44;2.67;;;1.95;;
9140;SDS011;46330;50.822;7.126;2023-04-15T12:01:13;3.90;;;2.10;;
9140;SDS011;46330;50.822;7.126;2023-04-15T12:03:42;2.20;;;2.00;;
9140;SDS011;46330;50.822;7.126;2023-04-15T12:06:13;3.20;;;2.10;;
9140;SDS011;46330;50.822;7.126;2023-04-15T12:08:51;2.20;;;1.80;;
9140;SDS011;46330;50.822;7.126;2023-04-15T12:11:37;2.10;;;1.90;;
9140;SDS011;46330;50.822;7.126;2023-04-15T12:14:10;2.47;;;2.00;;
9140;SDS011;46330;50.822;7.126;2023-04-15T12:16:51;2.35;;;1.98;;
9140;SDS011;46330;50.822;7.126;2023-04-15T12:19:25;2.17;;;1.98;;
9140;SDS011;46330;50.822;7.126;2023-04-15T12:21:56;2.10;;;1.90;;
9140;SDS011;46330;50.822;7.126;2023-04-15T12:24:26;2.67;;;1.85;;
9140;SDS011;46330;50.822;7.126;2023-04-15T12:26:56;2.17;;;1.98;;
9140;SDS011;46330;50.822;7.126;2023-04-15T12:29:28;2.70;;;1.98;;
9140;SDS011;46330;50.822;7.126;2023-04-15T12:31:57;2.90;;;2.05;;
9140;SDS011;46330;50.822;7.126;2023-04-15T12:34:29;3.00;;;2.28;;
9140;SDS011;46330;50.822;7.126;2023-04-15T12:36:59;2.70;;;2.35;;
9140;SDS011;46330;50.822;7.126;2023-04-15T12:39:29;3.00;;;2.30;;
9140;SDS011;46330;50.822;7.126;2023-04-15T12:41:58;3.65;;;2.50;;
9140;SDS011;46330;50.822;7.126;2023-04-15T12:44:27;4.63;;;2.50;;
9140;SDS011;46330;50.822;7.126;2023-04-15T12:46:55;3.60;;;2.53;;
9140;SDS011;46330;50.822;7.126;2023-04-15T12:49:24;2.78;;;2.33;;
9140;SDS011;46330;50.822;7.126;2023-04-15T12:51:56;12.57;;;4.70;;
9140;SDS011;46330;50.822;7.126;2023-04-15T12:54:26;6.28;;;3.10;;
9140;SDS011;46330;50.822;7.126;2023-04-15T12:56:54;12.40;;;4.20;;
9140;SDS011;46330;50.822;7.126;2023-04-15T12:59:23;3.42;;;2.75;;
9140;SDS011;46330;50.822;7.126;2023-04-15T13:01:51;13.90;;;3.13;;
9140;SDS011;46330;50.822;7.126;2023-04-15T13:04:20;3.90;;;2.55;;
9140;SDS011;46330;50.822;7.126;2023-04-15T13:06:48;4.03;;;3.05;;
9140;SDS011;46330;50.822;7.126;2023-04-15T13:09:18;9.27;;;3.67;;
9140;SDS011;46330;50.822;7.126;2023-04-15T13:11:45;3.70;;;2.92;;
9140;SDS011;46330;50.822;7.126;2023-04-15T13:14:13;7.18;;;2.85;;
9140;SDS011;46330;50.822;7.126;2023-04-15T13:16:41;3.20;;;2.70;;
9140;SDS011;46330;50.822;7.126;2023-04-15T13:19:09;4.60;;;3.03;;
9140;SDS011;46330;50.822;7.126;2023-04-15T13:21:37;5.15;;;4.20;;
9140;SDS011;46330;50.822;7.126;2023-04-15T13:24:05;3.63;;;3.13;;
9140;SDS011;46330;50.822;7.126;2023-04-15T13:26:35;4.68;;;3.00;;
9140;SDS011;46330;50.822;7.126;2023-04-15T13:29:03;4.22;;;3.40;;
9140;SDS011;46330;50.822;7.126;2023-04-15T13:31:31;4.60;;;3.20;;
9140;SDS011;46330;50.822;7.126;2023-04-15T13:33:59;6.95;;;3.70;;
9140;SDS011;46330;50.822;7.126;2023-04-15T13:36:27;5.28;;;3.80;;
9140;SDS011;46330;50.822;7.126;2023-04-15T13:38:55;5.65;;;3.65;;
9140;SDS011;46330;50.822;7.126;2023-04-15T13:41:23;5.15;;;4.18;;
9140;SDS011;46330;50.822;7.126;2023-04-15T13:43:52;5.32;;;3.97;;
9140;SDS011;46330;50.822;7.126;2023-04-15T13:46:21;4.90;;;3.97;;
9140;SDS011;46330;50.822;7.126;2023-04-15T13:48:48;5.95;;;4.45;;
9140;SDS011;46330;50.822;7.126;2023-04-15T13:51:16;5.40;;;4.32;;
9140;SDS011;46330;50.822;7.126;2023-04-15T13:53:44;5.40;;;4.35;;
9140;SDS011;46330;50.822;7.126;2023-04-15T13:56:12;6.00;;;4.60;;
9140;SDS011;46330;50.822;7.126;2023-04-15T13:58:40;6.50;;;4.68;;
9140;SDS011;46330;50.822;7.126;2023-04-15T14:01:09;6.18;;;4.90;;
9140;SDS011;46330;50.822;7.126;2023-04-15T14:03:37;7.18;;;5.68;;
9140;SDS011;46330;50.822;7.126;2023-04-15T14:06:05;7.90;;;5.47;;
9140;SDS011;46330;50.822;7.126;2023-04-15T14:08:33;8.73;;;6.18;;
9140;SDS011;46330;50.822;7.126;2023-04-15T14:11:02;6.88;;;5.70;;
9140;SDS011;46330;50.822;7.126;2023-04-15T14:13:30;9.32;;;6.15;;
9140;SDS011;46330;50.822;7.126;2023-04-15T14:15:58;6.05;;;5.32;;
9140;SDS011;46330;50.822;7.126;2023-04-15T14:18:28;7.07;;;5.50;;
9140;SDS011;46330;50.822;7.126;2023-04-15T14:20:56;8.02;;;5.90;;
9140;SDS011;46330;50.822;7.126;2023-04-15T14:23:24;6.60;;;5.63;;
9140;SDS011;46330;50.822;7.126;2023-04-15T14:25:52;8.88;;;6.03;;
9140;SDS011;46330;50.822;7.126;2023-04-15T14:28:19;11.02;;;6.03;;
9140;SDS011;46330;50.822;7.126;2023-04-15T14:30:47;6.97;;;5.85;;
9140;SDS011;46330;50.822;7.126;2023-04-15T14:33:15;7.20;;;5.63;;
9140;SDS011;46330;50.822;7.126;2023-04-15T14:35:45;8.38;;;5.97;;
9140;SDS011;46330;50.822;7.126;2023-04-15T14:38:13;7.00;;;5.97;;
9140;SDS011;46330;50.822;7.126;2023-04-15T14:40:41;7.75;;;6.25;;
9140;SDS011;46330;50.822;7.126;2023-04-15T14:43:10;8.55;;;6.35;;
9140;SDS011;46330;50.822;7.126;2023-04-15T14:45:38;8.05;;;5.97;;
9140;SDS011;46330;50.822;7.126;2023-04-15T14:48:10;7.90;;;6.05;;
9140;SDS011;46330;50.822;7.126;2023-04-15T14:50:39;7.75;;;5.82;;
9140;SDS011;46330;50.822;7.126;2023-04-15T14:53:08;8.60;;;5.97;;
9140;SDS011;46330;50.822;7.126;2023-04-15T14:55:36;6.53;;;5.28;;
9140;SDS011;46330;50.822;7.126;2023-04-15T14:58:04;7.13;;;5.20;;
9140;SDS011;46330;50.822;7.126;2023-04-15T15:00:33;6.15;;;4.70;;
9140;SDS011;46330;50.822;7.126;2023-04-15T15:03:04;5.32;;;4.40;;
9140;SDS011;46330;50.822;7.126;2023-04-15T15:05:38;6.10;;;4.80;;
9140;SDS011;46330;50.822;7.126;2023-04-15T15:08:06;5.50;;;4.47;;
9140;SDS011;46330;50.822;7.126;2023-04-15T15:10:36;6.93;;;4.72;;
9140;SDS011;46330;50.822;7.126;2023-04-15T15:13:14;8.23;;;5.72;;
9140;SDS011;46330;50.822;7.126;2023-04-15T15:15:42;5.85;;;4.85;;